createdAt,value
2023-02-11T00:00:24.719Z,101242.81
2023-02-11T00:02:01.046Z,101232.06
2023-02-11T00:03:35.750Z,101257.91
2023-02-11T00:05:09.322Z,101257.00
2023-02-11T00:06:42.503Z,101247.88
2023-02-11T00:08:17.101Z,101235.53
2023-02-11T00:09:50.234Z,101249.25
2023-02-11T00:11:25.762Z,101256.13
2023-02-11T00:12:58.868Z,101247.66
2023-02-11T00:14:32.005Z,101250.78
2023-02-11T00:16:09.298Z,101250.56
2023-02-11T00:17:44.039Z,101245.22
2023-02-11T00:19:17.185Z,101242.31
2023-02-11T00:20:49.796Z,101245.22
2023-02-11T00:22:23.077Z,101234.28
2023-02-11T00:23:57.266Z,101239.50
2023-02-11T00:25:30.412Z,101241.63
2023-02-11T00:27:04.070Z,101244.41
2023-02-11T00:28:37.484Z,101238.69
2023-02-11T00:30:12.216Z,101243.81
2023-02-11T00:31:45.495Z,101234.47
2023-02-11T00:33:20.039Z,101232.91
2023-02-11T00:34:55.320Z,101217.13
2023-02-11T00:36:30.333Z,101237.56
2023-02-11T00:38:03.433Z,101231.59
2023-02-11T00:39:38.419Z,101230.00
2023-02-11T00:41:11.700Z,101227.56
2023-02-11T00:42:45.269Z,101235.34
2023-02-11T00:44:18.446Z,101234.66
2023-02-11T00:45:53.361Z,101238.13
2023-02-11T00:47:26.778Z,101228.00
2023-02-11T00:49:01.571Z,101234.03
2023-02-11T00:50:34.707Z,101235.56
2023-02-11T00:52:07.854Z,101238.94
2023-02-11T00:53:40.396Z,101235.03
2023-02-11T00:55:13.998Z,101234.72
2023-02-11T00:56:46.153Z,101225.16
2023-02-11T00:58:19.467Z,101230.28
2023-02-11T00:59:52.646Z,101226.81
2023-02-11T01:01:26.600Z,101229.38
2023-02-11T01:02:59.786Z,101231.94
2023-02-11T01:04:34.340Z,101227.38
2023-02-11T01:06:08.507Z,101214.06
2023-02-11T01:07:44.516Z,101228.28
2023-02-11T01:09:17.762Z,101217.59
2023-02-11T01:10:55.181Z,101220.50
2023-02-11T01:12:28.305Z,101224.09
2023-02-11T01:14:04.147Z,101223.69
2023-02-11T01:15:37.346Z,101218.66
2023-02-11T01:17:10.949Z,101216.09
2023-02-11T01:18:44.483Z,101221.97
2023-02-11T01:20:22.358Z,101212.75
2023-02-11T01:21:55.700Z,101224.53
2023-02-11T01:23:27.894Z,101224.78
2023-02-11T01:25:02.379Z,101231.66
2023-02-11T01:26:35.701Z,101212.19
2023-02-11T01:28:12.539Z,101223.63
2023-02-11T01:29:45.900Z,101219.66
2023-02-11T01:31:19.727Z,101227.63
2023-02-11T01:32:53.211Z,101212.25
2023-02-11T01:34:26.278Z,101211.50
2023-02-11T01:36:03.959Z,101219.19
2023-02-11T01:37:37.899Z,101213.97
2023-02-11T01:39:11.283Z,101210.50
2023-02-11T01:40:48.250Z,101211.84
2023-02-11T01:42:24.197Z,101224.78
2023-02-11T01:43:57.383Z,101208.88
2023-02-11T01:46:05.329Z,101216.09
2023-02-11T01:47:38.526Z,101205.88
2023-02-11T01:49:15.126Z,101226.91
2023-02-11T01:50:52.200Z,101201.88
2023-02-11T01:52:30.511Z,101197.63
2023-02-11T01:54:22.492Z,101202.97
2023-02-11T01:56:14.785Z,101191.97
2023-02-11T01:57:53.589Z,101202.50
2023-02-11T01:59:30.694Z,101203.19
2023-02-11T02:01:05.916Z,101203.97
2023-02-11T02:02:45.362Z,101194.72
2023-02-11T02:04:21.056Z,101196.53
2023-02-11T02:06:00.974Z,101194.72
2023-02-11T02:07:43.030Z,101204.97
2023-02-11T02:09:21.629Z,101190.28
2023-02-11T02:10:56.658Z,101196.53
2023-02-11T02:12:28.819Z,101197.50
2023-02-11T02:14:02.752Z,101190.75
2023-02-11T02:15:37.580Z,101187.84
2023-02-11T02:17:23.764Z,101185.38
2023-02-11T02:19:09.326Z,101186.75
2023-02-11T02:21:09.197Z,101218.34
2023-02-11T02:23:05.113Z,101198.75
2023-02-11T02:25:01.085Z,101198.75
2023-02-11T02:27:04.424Z,101194.53
2023-02-11T02:29:08.963Z,101191.16
2023-02-11T02:31:10.514Z,101198.63
2023-02-11T02:33:21.619Z,101199.88
2023-02-11T02:35:02.932Z,101201.19
2023-02-11T02:36:42.619Z,101201.19
2023-02-11T02:38:23.654Z,101205.22
2023-02-11T02:39:57.864Z,101198.53
2023-02-11T02:41:33.681Z,101201.88
2023-02-11T02:43:10.313Z,101202.34
2023-02-11T02:44:49.913Z,101207.44
2023-02-11T02:46:24.662Z,101209.22
2023-02-11T02:47:59.529Z,101209.44
2023-02-11T02:49:32.745Z,101209.63
2023-02-11T02:51:18.339Z,101205.66
2023-02-11T02:53:01.846Z,101211.75
2023-02-11T02:55:03.145Z,101209.88
2023-02-11T02:56:46.340Z,101209.44
2023-02-11T02:58:50.161Z,101204.09
2023-02-11T03:00:29.828Z,101203.63
2023-02-11T03:02:13.985Z,101202.53
2023-02-11T03:03:55.157Z,101207.88
2023-02-11T03:05:33.314Z,101205.63
2023-02-11T03:07:17.407Z,101201.38
2023-02-11T03:08:56.765Z,101198.34
2023-02-11T03:10:32.856Z,101205.16
2023-02-11T03:12:08.577Z,101201.81
2023-02-11T03:13:43.428Z,101198.94
2023-02-11T03:15:17.940Z,101202.47
2023-02-11T03:16:53.431Z,101206.03
2023-02-11T03:18:29.147Z,101204.59
2023-02-11T03:20:05.966Z,101201.16
2023-02-11T03:21:41.989Z,101206.50
2023-02-11T03:23:20.069Z,101178.06
2023-02-11T03:24:52.449Z,101207.50
2023-02-11T03:26:31.619Z,101203.16
2023-02-11T03:28:09.347Z,101204.97
2023-02-11T03:29:49.424Z,101210.81
2023-02-11T03:31:30.600Z,101209.59
2023-02-11T03:33:09.881Z,101202.06
2023-02-11T03:34:47.576Z,101204.84
2023-02-11T03:36:27.951Z,101204.97
2023-02-11T03:38:05.513Z,101208.25
2023-02-11T03:39:41.374Z,101212.03
2023-02-11T03:41:17.378Z,101203.81
2023-02-11T03:42:54.573Z,101202.13
2023-02-11T03:44:33.169Z,101202.91
2023-02-11T03:46:07.342Z,101199.81
2023-02-11T03:47:45.143Z,101203.38
2023-02-11T03:49:21.969Z,101197.16
2023-02-11T03:50:56.633Z,101206.03
2023-02-11T03:52:31.852Z,101202.47
2023-02-11T03:54:10.160Z,101201.94
2023-02-11T03:55:45.268Z,101201.38
2023-02-11T03:57:18.554Z,101192.94
2023-02-11T03:58:51.129Z,101203.38
2023-02-11T04:00:31.660Z,101203.28
2023-02-11T04:02:04.948Z,101207.50
2023-02-11T04:03:38.149Z,101197.72
2023-02-11T04:05:17.425Z,101199.50
2023-02-11T04:06:49.494Z,101203.50
2023-02-11T04:08:24.204Z,101198.63
2023-02-11T04:09:57.314Z,101208.50
2023-02-11T04:11:30.621Z,101190.13
2023-02-11T04:13:04.012Z,101174.47
2023-02-11T04:14:37.449Z,101202.72
2023-02-11T04:16:09.626Z,101198.47
2023-02-11T04:17:43.073Z,101203.81
2023-02-11T04:19:15.222Z,101198.03
2023-02-11T04:20:49.134Z,101203.38
2023-02-11T04:22:22.332Z,101197.16
2023-02-11T04:23:57.301Z,101197.81
2023-02-11T04:25:30.518Z,101197.38
2023-02-11T04:27:04.102Z,101193.25
2023-02-11T04:28:37.418Z,101194.63
2023-02-11T04:30:10.463Z,101196.94
2023-02-11T04:31:43.815Z,101198.72
2023-02-11T04:33:17.518Z,101202.84
2023-02-11T04:34:50.005Z,101174.91
2023-02-11T04:36:23.259Z,101191.59
2023-02-11T04:37:55.450Z,101194.16
2023-02-11T04:39:30.194Z,101199.38
2023-02-11T04:41:03.432Z,101184.72
2023-02-11T04:42:36.612Z,101185.84
2023-02-11T04:44:09.897Z,101187.38
2023-02-11T04:45:42.537Z,101187.50
2023-02-11T04:47:15.990Z,101185.94
2023-02-11T04:48:48.268Z,101171.38
2023-02-11T04:50:21.433Z,101175.16
2023-02-11T04:51:54.776Z,101169.38
2023-02-11T04:53:26.929Z,101175.59
2023-02-11T04:55:01.460Z,101164.38
2023-02-11T04:56:33.650Z,101169.50
2023-02-11T04:58:07.042Z,101169.38
2023-02-11T04:59:40.735Z,101163.34
2023-02-11T05:01:15.061Z,101167.16
2023-02-11T05:02:48.271Z,101170.03
2023-02-11T05:04:21.478Z,101178.25
2023-02-11T05:05:55.450Z,101169.13
2023-02-11T05:07:28.621Z,101163.78
2023-02-11T05:09:01.756Z,101166.91
2023-02-11T05:10:35.955Z,101168.47
2023-02-11T05:12:09.131Z,101163.13
2023-02-11T05:13:41.448Z,101171.31
2023-02-11T05:15:14.636Z,101160.63
2023-02-11T05:16:48.200Z,101167.06
2023-02-11T05:18:20.634Z,101160.44
2023-02-11T05:19:53.884Z,101161.41
2023-02-11T05:21:27.354Z,101153.53
2023-02-11T05:23:00.644Z,101159.09
2023-02-11T05:24:34.197Z,101161.66
2023-02-11T05:26:09.352Z,101157.09
2023-02-11T05:27:42.502Z,101154.84
2023-02-11T05:29:15.707Z,101156.81
2023-02-11T05:30:48.860Z,101161.03
2023-02-11T05:32:22.565Z,101162.56
2023-02-11T05:33:55.820Z,101155.31
2023-02-11T05:35:28.475Z,101157.38
2023-02-11T05:37:01.633Z,101160.19
2023-02-11T05:38:33.862Z,101159.66
2023-02-11T05:40:07.863Z,101157.22
2023-02-11T05:41:42.472Z,101160.88
2023-02-11T05:43:15.552Z,101153.94
2023-02-11T05:44:50.633Z,101162.81
2023-02-11T05:46:23.954Z,101164.41
2023-02-11T05:47:57.278Z,101162.44
2023-02-11T05:49:30.464Z,101160.88
2023-02-11T05:51:08.534Z,101164.44
2023-02-11T05:52:41.700Z,101163.22
2023-02-11T05:54:15.650Z,101168.91
2023-02-11T05:55:49.096Z,101170.16
2023-02-11T05:57:24.017Z,101174.72
2023-02-11T05:58:57.175Z,101169.84
2023-02-11T06:00:30.474Z,101166.69
2023-02-11T06:02:03.655Z,101170.34
2023-02-11T06:03:36.955Z,101191.94
2023-02-11T06:05:10.901Z,101170.16
2023-02-11T06:06:44.279Z,101174.94
2023-02-11T06:08:17.450Z,101180.50
2023-02-11T06:09:50.774Z,101168.94
2023-02-11T06:11:23.901Z,101177.41
2023-02-11T06:12:58.541Z,101172.53
2023-02-11T06:14:34.015Z,101171.50
2023-02-11T06:16:07.748Z,101177.84
2023-02-11T06:17:41.030Z,101172.53
2023-02-11T06:19:14.661Z,101168.50
2023-02-11T06:20:47.832Z,101155.16
2023-02-11T06:22:21.278Z,101164.50
2023-02-11T06:23:54.466Z,101159.72
2023-02-11T06:25:28.000Z,101156.59
2023-02-11T06:27:00.156Z,101163.59
2023-02-11T06:28:36.078Z,101158.91
2023-02-11T06:30:10.367Z,101169.81
2023-02-11T06:31:43.873Z,101165.09
2023-02-11T06:33:17.597Z,101162.19
2023-02-11T06:34:50.757Z,101161.03
2023-02-11T06:36:24.151Z,101168.50
2023-02-11T06:37:57.465Z,101181.28
2023-02-11T06:39:30.775Z,101170.66
2023-02-11T06:41:04.391Z,101171.28
2023-02-11T06:42:38.772Z,101174.84
2023-02-11T06:44:13.530Z,101179.63
2023-02-11T06:45:46.639Z,101170.66
2023-02-11T06:47:20.038Z,101178.09
2023-02-11T06:48:53.241Z,101169.47
2023-02-11T06:50:26.458Z,101175.13
2023-02-11T06:51:59.735Z,101171.31
2023-02-11T06:53:32.975Z,101181.72
2023-02-11T06:55:06.696Z,101185.13
2023-02-11T06:56:41.380Z,101186.44
2023-02-11T06:58:14.518Z,101183.19
2023-02-11T06:59:48.141Z,101184.69
2023-02-11T07:01:21.352Z,101189.38
2023-02-11T07:02:54.774Z,101180.34
2023-02-11T07:04:27.859Z,101169.09
2023-02-11T07:06:01.173Z,101180.00
2023-02-11T07:07:35.075Z,101180.19
2023-02-11T07:09:08.841Z,101180.38
2023-02-11T07:10:42.402Z,101175.22
2023-02-11T07:12:15.661Z,101182.75
2023-02-11T07:13:49.362Z,101179.94
2023-02-11T07:15:24.096Z,101173.13
2023-02-11T07:16:56.243Z,101181.22
2023-02-11T07:18:29.454Z,101177.78
2023-02-11T07:20:02.545Z,101178.91
2023-02-11T07:21:36.039Z,101181.50
2023-02-11T07:23:09.225Z,101170.44
2023-02-11T07:24:42.755Z,101184.84
2023-02-11T07:26:18.901Z,101170.91
2023-02-11T07:27:52.206Z,101179.84
2023-02-11T07:29:25.397Z,101174.94
2023-02-11T07:30:58.921Z,101172.19
2023-02-11T07:32:32.167Z,101171.66
2023-02-11T07:34:05.598Z,101169.34
2023-02-11T07:35:40.460Z,101167.66
2023-02-11T07:37:15.530Z,101174.09
2023-02-11T07:38:49.086Z,101172.94
2023-02-11T07:40:22.437Z,101173.81
2023-02-11T07:41:55.116Z,101174.03
2023-02-11T07:43:29.552Z,101177.69
2023-02-11T07:45:02.922Z,101160.47
2023-02-11T07:46:37.809Z,101164.72
2023-02-11T07:48:11.024Z,101160.00
2023-02-11T07:49:44.305Z,101170.78
2023-02-11T07:51:19.005Z,101168.41
2023-02-11T07:52:52.510Z,101161.94
2023-02-11T07:54:25.803Z,101171.69
2023-02-11T07:55:59.250Z,101160.47
2023-02-11T07:57:32.536Z,101168.47
2023-02-11T07:59:05.957Z,101165.44
2023-02-11T08:00:39.113Z,101158.28
2023-02-11T08:02:13.936Z,101159.97
2023-02-11T08:03:47.305Z,101153.03
2023-02-11T08:05:20.561Z,101159.41
2023-02-11T08:06:58.680Z,101157.75
2023-02-11T08:08:32.278Z,101150.97
2023-02-11T08:10:05.827Z,101150.50
2023-02-11T08:11:39.147Z,101149.16
2023-02-11T08:13:12.311Z,101137.69
2023-02-11T08:14:45.573Z,101141.72
2023-02-11T08:16:22.705Z,101142.00
2023-02-11T08:17:57.415Z,101131.59
2023-02-11T08:19:33.494Z,101138.03
2023-02-11T08:21:09.784Z,101147.28
2023-02-11T08:22:43.022Z,101136.09
2023-02-11T08:24:16.457Z,101138.75
2023-02-11T08:25:49.648Z,101131.06
2023-02-11T08:27:23.215Z,101136.75
2023-02-11T08:28:57.811Z,101138.75
2023-02-11T08:30:31.670Z,101140.94
2023-02-11T08:32:05.021Z,101132.84
2023-02-11T08:33:40.428Z,101122.59
2023-02-11T08:35:17.834Z,101116.59
2023-02-11T08:36:51.297Z,101125.59
2023-02-11T08:38:24.444Z,101123.22
2023-02-11T08:39:57.710Z,101124.88
2023-02-11T08:41:31.062Z,101114.56
2023-02-11T08:43:06.301Z,101112.22
2023-02-11T08:44:41.161Z,101110.56
2023-02-11T08:46:17.113Z,101106.47
2023-02-11T08:47:50.421Z,101101.34
2023-02-11T08:49:25.129Z,101116.34
2023-02-11T08:50:58.670Z,101108.50
2023-02-11T08:52:31.789Z,101098.22
2023-02-11T08:54:06.303Z,101090.38
2023-02-11T08:55:39.434Z,101094.03
2023-02-11T08:57:12.616Z,101087.59
2023-02-11T08:58:45.913Z,101089.41
2023-02-11T09:00:20.048Z,101081.56
2023-02-11T09:01:53.365Z,101084.19
2023-02-11T09:03:26.740Z,101076.31
2023-02-11T09:05:01.460Z,101072.84
2023-02-11T09:06:34.738Z,101073.47
2023-02-11T09:08:07.927Z,101064.78
2023-02-11T09:09:41.172Z,101063.94
2023-02-11T09:11:15.156Z,101075.25
2023-02-11T09:12:48.316Z,101064.91
2023-02-11T09:14:23.498Z,101070.28
2023-02-11T09:15:56.767Z,101066.91
2023-02-11T09:17:30.025Z,101058.22
2023-02-11T09:19:04.777Z,101066.13
2023-02-11T09:20:39.450Z,101050.34
2023-02-11T09:22:12.541Z,101048.53
2023-02-11T09:23:48.044Z,101044.97
2023-02-11T09:25:21.678Z,101044.06
2023-02-11T09:26:55.009Z,101037.00
2023-02-11T09:28:28.401Z,101038.66
2023-02-11T09:30:01.757Z,101028.22
2023-02-11T09:31:36.254Z,101035.31
2023-02-11T09:33:09.585Z,101026.50
2023-02-11T09:34:42.792Z,101033.56
2023-02-11T09:36:19.725Z,101016.88
2023-02-11T09:37:52.894Z,101021.19
2023-02-11T09:39:26.779Z,101016.56
2023-02-11T09:41:02.695Z,101021.53
2023-02-11T09:42:45.316Z,101009.72
2023-02-11T09:44:21.800Z,101000.00
2023-02-11T09:45:57.068Z,100992.88
2023-02-11T09:47:33.809Z,100993.53
2023-02-11T09:49:08.897Z,100984.50
2023-02-11T09:50:45.511Z,100976.56
2023-02-11T09:52:29.789Z,100982.50
2023-02-11T09:54:08.982Z,100984.00
2023-02-11T09:55:44.942Z,100976.63
2023-02-11T09:57:28.258Z,100976.66
2023-02-11T09:59:01.992Z,100969.84
2023-02-11T10:00:41.610Z,100968.00
2023-02-11T10:02:22.089Z,100971.28
2023-02-11T10:04:03.541Z,100962.56
2023-02-11T10:05:47.787Z,100957.41
2023-02-11T10:07:29.351Z,100948.56
2023-02-11T10:09:09.662Z,100948.63
2023-02-11T10:10:52.249Z,100946.88
2023-02-11T10:12:50.887Z,100937.94
2023-02-11T10:14:39.478Z,100945.78
2023-02-11T10:16:28.097Z,100941.34
2023-02-11T10:18:18.296Z,100937.72
2023-02-11T10:20:04.290Z,100937.56
2023-02-11T10:21:47.885Z,100923.47
2023-02-11T10:23:26.188Z,100921.72
2023-02-11T10:25:00.939Z,100914.88
2023-02-11T10:26:36.817Z,100918.25
2023-02-11T10:28:16.004Z,100908.75
2023-02-11T10:29:52.977Z,100904.25
2023-02-11T10:31:30.062Z,100898.84
2023-02-11T10:33:08.415Z,100898.00
2023-02-11T10:34:42.991Z,100890.03
2023-02-11T10:36:19.032Z,100890.81
2023-02-11T10:37:52.469Z,100894.09
2023-02-11T10:39:28.912Z,100880.97
2023-02-11T10:41:02.257Z,100874.13
2023-02-11T10:42:36.977Z,100875.84
2023-02-11T10:44:18.235Z,100882.66
2023-02-11T10:45:55.248Z,100877.72
2023-02-11T10:47:33.958Z,100872.66
2023-02-11T10:49:07.335Z,100867.59
2023-02-11T10:50:40.507Z,100856.34
2023-02-11T10:52:16.156Z,100860.66
2023-02-11T10:53:51.415Z,100851.81
2023-02-11T10:55:29.233Z,100846.59
2023-02-11T10:57:02.464Z,100839.56
2023-02-11T10:58:42.945Z,100837.78
2023-02-11T11:00:37.029Z,100827.19
2023-02-11T11:02:24.736Z,100825.44
2023-02-11T11:03:59.999Z,100822.88
2023-02-11T11:05:35.823Z,100818.63
2023-02-11T11:07:19.475Z,100818.78
2023-02-11T11:08:53.228Z,100817.09
2023-02-11T11:10:43.568Z,100814.59
2023-02-11T11:12:42.161Z,100809.22
2023-02-11T11:14:26.075Z,100801.34
2023-02-11T11:16:27.157Z,100803.94
2023-02-11T11:18:23.681Z,100797.84
2023-02-11T11:20:16.373Z,100792.69
2023-02-11T11:21:52.673Z,100782.28
2023-02-11T11:23:27.045Z,100799.72
2023-02-11T11:25:01.659Z,100792.84
2023-02-11T11:26:44.387Z,100788.59
2023-02-11T11:28:24.984Z,100787.69
2023-02-11T11:29:59.105Z,100779.91
2023-02-11T11:31:36.668Z,100781.72
2023-02-11T11:33:21.659Z,100770.34
2023-02-11T11:34:57.061Z,100773.03
2023-02-11T11:36:37.349Z,100775.72
2023-02-11T11:38:16.508Z,100766.91
2023-02-11T11:39:58.221Z,100763.41
2023-02-11T11:41:33.921Z,100758.19
2023-02-11T11:43:23.113Z,100756.56
2023-02-11T11:45:02.161Z,100753.13
2023-02-11T11:46:38.654Z,100745.25
2023-02-11T11:48:20.628Z,100744.41
2023-02-11T11:50:18.992Z,100746.19
2023-02-11T11:52:10.048Z,100747.94
2023-02-11T11:53:49.764Z,100746.25
2023-02-11T11:55:26.833Z,100738.41
2023-02-11T11:57:04.511Z,100730.56
2023-02-11T11:58:39.386Z,100733.19
2023-02-11T12:00:19.022Z,100733.28
2023-02-11T12:02:23.348Z,100728.88
2023-02-11T12:04:34.610Z,100726.38
2023-02-11T12:06:19.643Z,100728.16
2023-02-11T12:08:04.982Z,100718.63
2023-02-11T12:09:49.427Z,100716.03
2023-02-11T12:11:32.218Z,100714.31
2023-02-11T12:13:15.577Z,100709.06
2023-02-11T12:15:01.012Z,100704.66
2023-02-11T12:16:43.639Z,100708.16
2023-02-11T12:18:33.259Z,100707.34
2023-02-11T12:20:19.108Z,100704.75
2023-02-11T12:22:02.242Z,100687.22
2023-02-11T12:23:46.496Z,100703.88
2023-02-11T12:25:28.618Z,100690.75
2023-02-11T12:27:10.187Z,100689.06
2023-02-11T12:28:54.438Z,100689.09
2023-02-11T12:30:49.290Z,100683.84
2023-02-11T12:32:29.301Z,100673.38
2023-02-11T12:34:45.505Z,100675.16
2023-02-11T12:36:40.133Z,100671.66
2023-02-11T12:38:33.559Z,100676.91
2023-02-11T12:40:19.256Z,100676.03
2023-02-11T12:42:36.628Z,100679.53
2023-02-11T12:44:21.944Z,100670.88
2023-02-11T12:46:31.380Z,100674.38
2023-02-11T12:48:22.811Z,100676.13
2023-02-11T12:50:06.945Z,100665.63
2023-02-11T12:51:59.357Z,100656.00
2023-02-11T12:54:00.939Z,100657.78
2023-02-11T12:55:38.163Z,100654.28
2023-02-11T12:57:19.584Z,100627.06
2023-02-11T12:58:56.817Z,100655.13
2023-02-11T13:00:39.904Z,100651.66
2023-02-11T13:02:22.991Z,100653.44
2023-02-11T13:04:02.501Z,100652.56
2023-02-11T13:05:41.719Z,100645.53
2023-02-11T13:07:21.003Z,100641.13
2023-02-11T13:09:03.959Z,100653.38
2023-02-11T13:10:39.433Z,100648.16
2023-02-11T13:12:32.744Z,100643.81
2023-02-11T13:14:10.994Z,100628.94
2023-02-11T13:15:46.986Z,100633.28
2023-02-11T13:17:31.750Z,100630.66
2023-02-11T13:19:15.627Z,100628.06
2023-02-11T13:20:57.569Z,100628.06
2023-02-11T13:22:36.125Z,100633.31
2023-02-11T13:24:21.605Z,100620.19
2023-02-11T13:26:03.627Z,100626.28
2023-02-11T13:27:42.794Z,100621.03
2023-02-11T13:29:25.801Z,100628.03
2023-02-11T13:31:03.518Z,100623.66
2023-02-11T13:33:19.563Z,100621.03
2023-02-11T13:34:58.776Z,100610.53
2023-02-11T13:36:35.228Z,100617.53
2023-02-11T13:38:21.557Z,100619.28
2023-02-11T13:40:00.553Z,100612.28
2023-02-11T13:41:40.629Z,100617.53
2023-02-11T13:43:23.308Z,100618.41
2023-02-11T13:44:57.533Z,100608.78
2023-02-11T13:46:49.312Z,100614.91
2023-02-11T13:48:26.712Z,100607.03
2023-02-11T13:50:01.885Z,100611.44
2023-02-11T13:51:38.043Z,100605.28
2023-02-11T13:53:11.405Z,100598.31
2023-02-11T13:54:51.192Z,100599.19
2023-02-11T13:56:30.454Z,100609.66
2023-02-11T13:58:20.129Z,100602.69
2023-02-11T13:59:55.639Z,100596.53
2023-02-11T14:02:20.515Z,100591.25
2023-02-11T14:04:39.934Z,100593.03
2023-02-11T14:06:34.756Z,100590.41
2023-02-11T14:08:33.478Z,100580.75
2023-02-11T14:10:45.783Z,100578.16
2023-02-11T14:12:32.466Z,100577.28
2023-02-11T14:14:17.917Z,100575.50
2023-02-11T14:16:06.115Z,100572.03
2023-02-11T14:17:39.258Z,100570.25
2023-02-11T14:19:31.774Z,100572.03
2023-02-11T14:21:13.500Z,100563.25
2023-02-11T14:22:50.882Z,100564.13
2023-02-11T14:24:48.155Z,100564.97
2023-02-11T14:26:37.782Z,100572.81
2023-02-11T14:28:20.379Z,100571.06
2023-02-11T14:30:10.256Z,100571.94
2023-02-11T14:31:50.564Z,100566.69
2023-02-11T14:33:53.348Z,100567.53
2023-02-11T14:35:36.877Z,100565.78
2023-02-11T14:37:23.850Z,100558.78
2023-02-11T14:39:06.654Z,100561.41
2023-02-11T14:40:51.583Z,100552.66
2023-02-11T14:42:28.200Z,100555.28
2023-02-11T14:44:05.958Z,100557.88
2023-02-11T14:45:40.462Z,100554.34
2023-02-11T14:47:23.307Z,100549.09
2023-02-11T14:49:01.421Z,100543.88
2023-02-11T14:50:45.429Z,100540.31
2023-02-11T14:52:28.002Z,100541.19
2023-02-11T14:54:13.001Z,100528.06
2023-02-11T14:55:50.592Z,100533.31
2023-02-11T14:57:23.880Z,100533.31
2023-02-11T14:58:57.309Z,100527.19
2023-02-11T15:00:31.069Z,100536.78
2023-02-11T15:02:04.321Z,100531.53
2023-02-11T15:03:39.857Z,100531.53
2023-02-11T15:05:23.124Z,100540.25
2023-02-11T15:07:01.409Z,100528.84
2023-02-11T15:08:37.547Z,100526.22
2023-02-11T15:10:19.738Z,100525.34
2023-02-11T15:11:54.567Z,100520.88
2023-02-11T15:13:32.077Z,100522.69
2023-02-11T15:15:05.775Z,100516.53
2023-02-11T15:16:44.021Z,100528.75
2023-02-11T15:18:22.976Z,100512.06
2023-02-11T15:20:01.170Z,100524.28
2023-02-11T15:21:36.867Z,100521.63
2023-02-11T15:23:21.173Z,100515.53
2023-02-11T15:25:02.225Z,100505.88
2023-02-11T15:26:35.556Z,100503.22
2023-02-11T15:28:22.369Z,100496.19
2023-02-11T15:29:55.598Z,100511.88
2023-02-11T15:31:30.734Z,100519.72
2023-02-11T15:33:06.918Z,100524.03
2023-02-11T15:34:40.279Z,100515.25
2023-02-11T15:36:14.855Z,100512.56
2023-02-11T15:37:50.629Z,100516.00
2023-02-11T15:39:35.677Z,100506.25
2023-02-11T15:41:10.098Z,100511.44
2023-02-11T15:42:56.248Z,100507.75
2023-02-11T15:44:35.958Z,100516.34
2023-02-11T15:46:11.781Z,100516.22
2023-02-11T15:47:52.164Z,100516.97
2023-02-11T15:49:26.515Z,100507.25
2023-02-11T15:51:03.580Z,100509.81
2023-02-11T15:52:37.010Z,100519.28
2023-02-11T15:54:19.961Z,100520.91
2023-02-11T15:56:04.045Z,100513.72
2023-02-11T15:57:37.337Z,100510.06
2023-02-11T15:59:15.605Z,100509.91
2023-02-11T16:00:51.087Z,100514.97
2023-02-11T16:02:32.814Z,100514.00
2023-02-11T16:04:06.728Z,100519.09
2023-02-11T16:05:40.701Z,100512.06
2023-02-11T16:07:40.927Z,100512.78
2023-02-11T16:09:26.337Z,100512.66
2023-02-11T16:11:03.479Z,100510.91
2023-02-11T16:12:37.087Z,100519.53
2023-02-11T16:14:24.252Z,100507.25
2023-02-11T16:16:00.954Z,100508.88
2023-02-11T16:17:34.173Z,100505.31
2023-02-11T16:19:07.418Z,100502.72
2023-02-11T16:20:41.254Z,100484.22
2023-02-11T16:22:19.135Z,100491.16
2023-02-11T16:23:55.031Z,100499.00
2023-02-11T16:25:28.153Z,100507.59
2023-02-11T16:27:05.647Z,100507.53
2023-02-11T16:28:38.995Z,100510.00
2023-02-11T16:30:27.941Z,100515.09
2023-02-11T16:32:09.935Z,100520.16
2023-02-11T16:33:43.142Z,100522.63
2023-02-11T16:35:16.306Z,100521.59
2023-02-11T16:36:50.362Z,100516.94
2023-02-11T16:38:26.501Z,100517.91
2023-02-11T16:39:59.716Z,100525.59
2023-02-11T16:41:32.959Z,100515.03
2023-02-11T16:43:07.588Z,100524.47
2023-02-11T16:44:41.406Z,100524.31
2023-02-11T16:46:16.917Z,100504.00
2023-02-11T16:47:50.240Z,100523.28
2023-02-11T16:49:27.591Z,100526.72
2023-02-11T16:51:01.202Z,100527.50
2023-02-11T16:52:34.971Z,100533.50
2023-02-11T16:54:08.243Z,100523.94
2023-02-11T16:55:41.581Z,100539.47
2023-02-11T16:57:16.494Z,100537.66
2023-02-11T16:58:51.083Z,100526.22
2023-02-11T17:00:25.069Z,100528.72
2023-02-11T17:01:59.390Z,100529.50
2023-02-11T17:03:37.874Z,100525.91
2023-02-11T17:05:20.200Z,100526.69
2023-02-11T17:06:53.428Z,100524.78
2023-02-11T17:08:26.590Z,100527.25
2023-02-11T17:10:00.777Z,100520.13
2023-02-11T17:11:33.988Z,100530.47
2023-02-11T17:13:07.475Z,100516.44
2023-02-11T17:14:42.014Z,100511.91
2023-02-11T17:16:20.601Z,100511.69
2023-02-11T17:17:53.731Z,100509.72
2023-02-11T17:19:26.934Z,100513.06
2023-02-11T17:21:00.111Z,100515.53
2023-02-11T17:22:33.646Z,100512.84
2023-02-11T17:24:07.091Z,100540.50
2023-02-11T17:25:40.790Z,100517.88
2023-02-11T17:27:15.347Z,100522.91
2023-02-11T17:28:48.928Z,100525.41
2023-02-11T17:30:24.094Z,100519.31
2023-02-11T17:31:57.330Z,100515.00
2023-02-11T17:33:30.633Z,100510.66
2023-02-11T17:35:06.141Z,100517.56
2023-02-11T17:36:41.339Z,100521.00
2023-02-11T17:38:14.484Z,100527.94
2023-02-11T17:39:47.643Z,100527.88
2023-02-11T17:41:21.214Z,100525.22
2023-02-11T17:42:54.786Z,100519.09
2023-02-11T17:44:27.960Z,100512.88
2023-02-11T17:46:02.601Z,100513.72
2023-02-11T17:47:36.369Z,100516.22
2023-02-11T17:49:09.751Z,100522.34
2023-02-11T17:50:42.979Z,100517.16
2023-02-11T17:52:16.820Z,100522.25
2023-02-11T17:53:50.091Z,100523.88
2023-02-11T17:55:23.264Z,100523.78
2023-02-11T17:56:58.303Z,100510.66
2023-02-11T17:58:31.724Z,100514.81
2023-02-11T18:00:05.974Z,100523.34
2023-02-11T18:01:47.723Z,100526.75
2023-02-11T18:03:20.950Z,100516.31
2023-02-11T18:04:57.521Z,100514.47
2023-02-11T18:06:31.027Z,100517.78
2023-02-11T18:08:05.281Z,100511.50
2023-02-11T18:09:39.443Z,100510.94
2023-02-11T18:11:15.145Z,100519.59
2023-02-11T18:12:48.606Z,100513.44
2023-02-11T18:14:23.948Z,100514.28
2023-02-11T18:16:02.669Z,100508.22
2023-02-11T18:17:37.257Z,100509.81
2023-02-11T18:19:12.789Z,100508.81
2023-02-11T18:20:46.617Z,100520.00
2023-02-11T18:22:20.945Z,100525.91
2023-02-11T18:23:54.120Z,100513.56
2023-02-11T18:25:27.869Z,100511.72
2023-02-11T18:27:01.065Z,100512.56
2023-02-11T18:28:34.285Z,100509.78
2023-02-11T18:30:08.805Z,100507.94
2023-02-11T18:31:42.202Z,100520.00
2023-02-11T18:33:16.680Z,100519.06
2023-02-11T18:34:49.940Z,100511.22